Newton Junction, New Hampshire
Current Conditions -  °F | °C
As of 12:54 PM on Wednesday 28 Jan 2015 (Local Time) from KLWM Reporting Station
Clear Clear  
Wind Chill:   Ceiling: Unl
Heat Index: 20°   Visibility: 10mi
Dew Point:   Wind: 10mph
Humidity: 55%   Direction: 320°NW
Pressure: 29.97"   Gusts: NA
Location:  42.87°N, 71.07°W
Report Text: KLWM 281754Z 32009KT 10SM CLR M07/M14 A2997 RMK AO2 SLP150 T10671144 11067 21106 51001
Loading
Personal Weather Stations






























Interactive Weather Map New forecast layout! Learn more

10-Day Weather Forecast

Advertisements
Track Severe Weather on mobile